createdAt,value
2022-08-26T00:03:39.408Z,25.41
2022-08-26T00:08:43.811Z,26.76
2022-08-26T00:13:49.651Z,27.63
2022-08-26T00:18:53.225Z,26.08
2022-08-26T00:23:56.279Z,25.53
2022-08-26T00:28:58.996Z,26.89
2022-08-26T00:34:03.179Z,27.36
2022-08-26T00:39:07.588Z,26.95
2022-08-26T00:44:14.053Z,25.22
2022-08-26T00:49:33.868Z,26.64
2022-08-26T00:54:42.376Z,26.50
2022-08-26T00:59:51.439Z,24.69
2022-08-26T01:04:59.109Z,26.32
2022-08-26T01:10:07.995Z,26.40
2022-08-26T01:15:16.342Z,24.58
2022-08-26T01:20:28.342Z,26.08
2022-08-26T01:25:33.578Z,26.14
2022-08-26T01:30:39.508Z,24.31
2022-08-26T01:35:43.390Z,25.86
2022-08-26T01:40:47.225Z,26.80
2022-08-26T01:45:51.583Z,25.71
2022-08-26T01:50:55.885Z,24.78
2022-08-26T01:56:01.330Z,26.16
2022-08-26T02:01:06.410Z,26.14
2022-08-26T02:06:10.371Z,24.30
2022-08-26T02:11:13.685Z,25.74
2022-08-26T02:16:19.477Z,25.78
2022-08-26T02:21:25.073Z,24.11
2022-08-26T02:26:27.887Z,25.61
2022-08-26T02:31:30.587Z,26.08
2022-08-26T02:36:33.446Z,24.17
2022-08-26T02:41:44.073Z,25.18
2022-08-26T02:46:48.364Z,26.39
2022-08-26T02:51:52.696Z,25.82
2022-08-26T02:56:56.367Z,24.06
2022-08-26T03:02:00.492Z,25.43
2022-08-26T03:07:04.254Z,26.29
2022-08-26T03:12:08.045Z,26.58
2022-08-26T03:17:10.901Z,24.83
2022-08-26T03:22:14.533Z,25.19
2022-08-26T03:27:17.828Z,26.65
2022-08-26T03:32:20.805Z,26.37
2022-08-26T03:37:23.588Z,24.46
2022-08-26T03:42:26.472Z,25.68
2022-08-26T03:47:29.266Z,26.64
2022-08-26T03:52:32.077Z,24.88
2022-08-26T03:57:34.806Z,24.65
2022-08-26T04:02:38.156Z,26.16
2022-08-26T04:07:42.982Z,25.84
2022-08-26T04:12:46.361Z,23.96
2022-08-26T04:17:49.299Z,25.11
2022-08-26T04:22:52.645Z,26.29
2022-08-26T04:27:55.635Z,24.58
2022-08-26T04:32:58.709Z,24.36
2022-08-26T04:38:03.368Z,26.14
2022-08-26T04:43:08.987Z,25.83
2022-08-26T04:48:12.333Z,23.98
2022-08-26T04:53:20.533Z,25.44
2022-08-26T04:58:25.228Z,26.72
2022-08-26T05:03:30.534Z,26.10
2022-08-26T05:08:34.182Z,24.26
2022-08-26T05:13:39.223Z,25.43
2022-08-26T05:18:43.704Z,26.89
2022-08-26T05:23:50.553Z,27.21
2022-08-26T05:28:54.735Z,25.45
2022-08-26T05:33:59.236Z,25.67
2022-08-26T05:39:07.935Z,27.38
2022-08-26T05:44:20.246Z,27.22
2022-08-26T05:49:26.418Z,25.87
2022-08-26T05:54:29.544Z,27.50
2022-08-26T05:59:32.500Z,26.63
2022-08-26T06:04:35.559Z,26.76
2022-08-26T06:09:39.907Z,27.83
2022-08-26T06:14:42.878Z,26.48
2022-08-26T06:19:45.717Z,27.74
2022-08-26T06:25:07.442Z,27.47
2022-08-26T06:30:13.204Z,26.31
2022-08-26T06:35:16.404Z,27.04
2022-08-26T06:40:21.030Z,28.20
2022-08-26T06:45:24.230Z,26.68
2022-08-26T06:50:27.109Z,27.02
2022-08-26T06:55:30.477Z,27.53
2022-08-26T07:00:33.901Z,26.38
2022-08-26T07:05:37.116Z,27.04
2022-08-26T07:10:39.891Z,27.68
2022-08-26T07:15:42.800Z,26.77
2022-08-26T07:20:45.830Z,27.78
2022-08-26T07:25:48.553Z,27.12
2022-08-26T07:30:52.072Z,26.64
2022-08-26T07:35:56.247Z,27.76
2022-08-26T07:40:59.523Z,27.13
2022-08-26T07:46:04.291Z,26.67
2022-08-26T07:51:07.627Z,26.44
2022-08-26T07:56:11.626Z,27.67
2022-08-26T08:01:14.894Z,28.31
2022-08-26T08:06:21.358Z,27.17
2022-08-26T08:11:27.297Z,26.48
2022-08-26T08:16:32.224Z,26.01
2022-08-26T08:21:36.178Z,25.76
2022-08-26T08:26:39.479Z,25.73
2022-08-26T08:31:58.353Z,26.11
2022-08-26T08:37:07.344Z,28.29
2022-08-26T08:42:36.774Z,28.25
2022-08-26T08:47:50.522Z,28.26
2022-08-26T08:53:15.283Z,28.33
2022-08-26T08:58:22.079Z,28.53
2022-08-26T09:03:40.376Z,28.70
2022-08-26T09:08:47.030Z,28.81
2022-08-26T09:13:55.347Z,28.88
2022-08-26T09:19:11.472Z,28.98
2022-08-26T09:24:14.268Z,29.30
2022-08-26T09:29:26.849Z,29.72
2022-08-26T09:34:29.667Z,30.12
2022-08-26T09:39:37.523Z,30.47
2022-08-26T09:45:03.919Z,30.93
2022-08-26T09:50:30.160Z,31.35
2022-08-26T09:55:33.095Z,31.67
2022-08-26T10:00:39.369Z,31.76
2022-08-26T10:06:00.207Z,31.73
2022-08-26T10:11:11.247Z,31.68
2022-08-26T10:16:14.585Z,31.45
2022-08-26T10:21:37.729Z,31.58
2022-08-26T10:26:54.441Z,31.62
2022-08-26T10:32:03.404Z,31.50
2022-08-26T10:37:15.636Z,31.32
2022-08-26T10:42:37.606Z,31.17
2022-08-26T10:47:48.697Z,30.91
2022-08-26T10:53:06.374Z,30.68
2022-08-26T10:58:30.201Z,30.58
2022-08-26T11:04:14.269Z,30.62
2022-08-26T11:09:45.948Z,30.67
2022-08-26T11:14:58.667Z,30.53
2022-08-26T11:20:08.933Z,30.34
2022-08-26T11:25:18.450Z,30.11
2022-08-26T11:30:21.543Z,29.98
2022-08-26T11:35:26.902Z,30.05
2022-08-26T11:40:35.410Z,30.26
2022-08-26T11:45:42.204Z,30.60
2022-08-26T11:50:55.394Z,30.86
2022-08-26T11:56:00.568Z,31.05
2022-08-26T12:01:09.928Z,31.30
2022-08-26T12:06:23.019Z,31.57
2022-08-26T12:11:27.285Z,31.66
2022-08-26T12:16:36.048Z,31.75
2022-08-26T12:21:38.826Z,31.92
2022-08-26T12:26:42.119Z,32.15
2022-08-26T12:31:44.959Z,32.30
2022-08-26T12:36:56.839Z,32.38
2022-08-26T12:42:04.501Z,32.50
2022-08-26T12:47:42.150Z,32.71
2022-08-26T12:52:52.393Z,32.86
2022-08-26T12:58:13.528Z,33.02
2022-08-26T13:03:34.557Z,33.09
2022-08-26T13:08:41.344Z,33.15
2022-08-26T13:13:45.832Z,33.30
2022-08-26T13:18:57.722Z,33.33
2022-08-26T13:24:16.848Z,33.40
2022-08-26T13:29:20.142Z,33.45
2022-08-26T13:34:24.234Z,33.44
2022-08-26T13:39:27.340Z,33.57
2022-08-26T13:44:30.295Z,33.63
2022-08-26T13:49:33.364Z,33.52
2022-08-26T13:54:36.411Z,33.33
2022-08-26T13:59:39.266Z,33.08
2022-08-26T14:04:43.600Z,32.60
2022-08-26T14:09:46.709Z,32.10
2022-08-26T14:14:49.617Z,31.65
2022-08-26T14:19:53.814Z,31.15
2022-08-26T14:24:56.960Z,30.70
2022-08-26T14:30:00.269Z,30.43
2022-08-26T14:35:03.325Z,30.27
2022-08-26T14:40:07.212Z,30.24
2022-08-26T14:45:15.998Z,30.48
2022-08-26T14:50:24.862Z,31.17
2022-08-26T14:55:28.203Z,32.09
2022-08-26T15:00:31.512Z,33.10
2022-08-26T15:05:34.646Z,34.06
2022-08-26T15:10:38.191Z,34.88
2022-08-26T15:15:41.083Z,35.46
2022-08-26T15:20:44.654Z,36.06
2022-08-26T15:25:48.321Z,36.55
2022-08-26T15:30:51.338Z,36.96
2022-08-26T15:35:55.981Z,37.28
2022-08-26T15:41:02.955Z,37.63
2022-08-26T15:46:11.726Z,37.96
2022-08-26T15:51:22.657Z,38.12
2022-08-26T15:56:32.661Z,38.38
2022-08-26T16:01:37.325Z,38.69
2022-08-26T16:06:42.563Z,38.82
2022-08-26T16:11:45.431Z,38.92
2022-08-26T16:16:49.232Z,38.97
2022-08-26T16:21:52.128Z,39.04
2022-08-26T16:26:54.986Z,38.92
2022-08-26T16:31:57.850Z,38.67
2022-08-26T16:37:00.757Z,38.55
2022-08-26T16:42:03.741Z,38.36
2022-08-26T16:47:06.916Z,38.13
2022-08-26T16:52:11.338Z,37.75
2022-08-26T16:57:16.908Z,37.22
2022-08-26T17:02:20.246Z,36.67
2022-08-26T17:07:23.635Z,36.00
2022-08-26T17:12:26.847Z,35.18
2022-08-26T17:17:29.708Z,33.95
2022-08-26T17:22:34.679Z,32.68
2022-08-26T17:27:37.812Z,31.56
2022-08-26T17:32:42.402Z,30.54
2022-08-26T17:37:45.275Z,29.62
2022-08-26T17:42:48.831Z,28.77
2022-08-26T17:47:53.707Z,27.94
2022-08-26T17:52:56.496Z,27.22
2022-08-26T17:57:59.486Z,26.56
2022-08-26T18:03:02.777Z,25.94
2022-08-26T18:08:06.421Z,25.40
2022-08-26T18:13:09.690Z,24.93
2022-08-26T18:18:16.079Z,24.52
2022-08-26T18:23:18.978Z,24.14
2022-08-26T18:28:21.815Z,23.77
2022-08-26T18:33:24.629Z,23.41
2022-08-26T18:38:28.463Z,23.08
2022-08-26T18:43:31.292Z,22.78
2022-08-26T18:48:36.765Z,22.48
2022-08-26T18:53:39.530Z,22.22
2022-08-26T18:58:42.249Z,23.37
2022-08-26T19:03:46.282Z,26.18
2022-08-26T19:08:50.175Z,26.41
2022-08-26T19:13:55.297Z,24.79
2022-08-26T19:18:58.942Z,23.85
2022-08-26T19:24:04.177Z,23.23
2022-08-26T19:29:07.136Z,22.73
2022-08-26T19:34:10.585Z,23.65
2022-08-26T19:39:13.460Z,26.25
2022-08-26T19:44:37.781Z,26.17
2022-08-26T19:49:40.578Z,24.38
2022-08-26T19:54:44.550Z,23.40
2022-08-26T19:59:47.517Z,22.72
2022-08-26T20:04:50.282Z,23.60
2022-08-26T20:09:53.116Z,26.12
2022-08-26T20:14:55.951Z,26.23
2022-08-26T20:20:28.454Z,24.44
2022-08-26T20:25:36.344Z,23.22
2022-08-26T20:30:40.170Z,23.95
2022-08-26T20:35:43.075Z,26.29
2022-08-26T20:40:46.287Z,25.67
2022-08-26T20:45:50.257Z,23.97
2022-08-26T20:50:57.533Z,22.94
2022-08-26T20:56:02.875Z,23.60
2022-08-26T21:01:08.271Z,25.93
2022-08-26T21:06:11.558Z,25.62
2022-08-26T21:11:15.176Z,23.73
2022-08-26T21:16:19.713Z,22.50
2022-08-26T21:21:25.025Z,23.15
2022-08-26T21:26:28.398Z,25.46
2022-08-26T21:31:32.375Z,25.43
2022-08-26T21:36:35.455Z,23.56
2022-08-26T21:41:39.217Z,23.66
2022-08-26T21:46:43.796Z,25.68
2022-08-26T21:51:48.487Z,24.57
2022-08-26T21:56:51.446Z,22.93
2022-08-26T22:01:54.718Z,23.47
2022-08-26T22:06:59.199Z,25.53
2022-08-26T22:12:02.204Z,24.64
2022-08-26T22:17:05.545Z,22.83
2022-08-26T22:22:08.584Z,23.08
2022-08-26T22:27:12.174Z,25.16
2022-08-26T22:32:15.241Z,23.94
2022-08-26T22:37:18.162Z,22.46
2022-08-26T22:42:21.007Z,24.20
2022-08-26T22:47:24.273Z,25.22
2022-08-26T22:52:27.491Z,23.59
2022-08-26T22:57:30.494Z,21.96
2022-08-26T23:02:33.340Z,22.52
2022-08-26T23:07:36.598Z,24.70
2022-08-26T23:12:39.513Z,24.28
2022-08-26T23:17:42.617Z,22.34
2022-08-26T23:22:45.544Z,22.53
2022-08-26T23:27:48.851Z,24.63
2022-08-26T23:32:52.155Z,23.75
2022-08-26T23:37:55.072Z,21.90
2022-08-26T23:43:05.738Z,22.96
2022-08-26T23:48:08.917Z,24.65
2022-08-26T23:53:19.489Z,23.87
2022-08-26T23:58:22.946Z,21.81
